sensor_id;sensor_type;location;lat;lon;timestamp;temperature;humidity
15296;DHT22;7749;49.964;7.890;2023-08-31T00:01:33;14.30;99.90
15296;DHT22;7749;49.964;7.890;2023-08-31T00:04:01;14.30;99.90
15296;DHT22;7749;49.964;7.890;2023-08-31T00:06:28;14.20;99.90
15296;DHT22;7749;49.964;7.890;2023-08-31T00:08:56;14.10;99.90
15296;DHT22;7749;49.964;7.890;2023-08-31T00:11:24;14.10;99.90
15296;DHT22;7749;49.964;7.890;2023-08-31T00:13:53;14.10;99.90
15296;DHT22;7749;49.964;7.890;2023-08-31T00:16:24;14.10;99.90
15296;DHT22;7749;49.964;7.890;2023-08-31T00:18:53;14.10;99.90
15296;DHT22;7749;49.964;7.890;2023-08-31T00:21:21;14.10;99.90
15296;DHT22;7749;49.964;7.890;2023-08-31T00:23:49;14.10;99.90
15296;DHT22;7749;49.964;7.890;2023-08-31T00:26:17;14.20;99.90
15296;DHT22;7749;49.964;7.890;2023-08-31T00:28:44;14.20;99.90
15296;DHT22;7749;49.964;7.890;2023-08-31T00:31:12;14.20;99.90
15296;DHT22;7749;49.964;7.890;2023-08-31T00:33:39;14.20;99.90
15296;DHT22;7749;49.964;7.890;2023-08-31T00:36:07;14.20;99.90
15296;DHT22;7749;49.964;7.890;2023-08-31T00:38:35;14.30;99.90
15296;DHT22;7749;49.964;7.890;2023-08-31T00:41:03;14.40;99.90
15296;DHT22;7749;49.964;7.890;2023-08-31T00:43:31;14.30;99.90
15296;DHT22;7749;49.964;7.890;2023-08-31T00:45:59;14.30;99.90
15296;DHT22;7749;49.964;7.890;2023-08-31T00:48:26;14.30;99.90
15296;DHT22;7749;49.964;7.890;2023-08-31T00:50:54;14.30;99.90
15296;DHT22;7749;49.964;7.890;2023-08-31T00:53:23;14.30;99.90
15296;DHT22;7749;49.964;7.890;2023-08-31T00:55:50;14.30;99.90
15296;DHT22;7749;49.964;7.890;2023-08-31T00:58:18;14.40;99.90
15296;DHT22;7749;49.964;7.890;2023-08-31T01:06:18;14.40;99.90
15296;DHT22;7749;49.964;7.890;2023-08-31T01:09:05;14.40;99.90
15296;DHT22;7749;49.964;7.890;2023-08-31T01:11:57;14.40;99.90
15296;DHT22;7749;49.964;7.890;2023-08-31T01:15:03;14.50;99.90
15296;DHT22;7749;49.964;7.890;2023-08-31T01:17:23;14.50;99.90
15296;DHT22;7749;49.964;7.890;2023-08-31T01:19:52;14.50;99.90
15296;DHT22;7749;49.964;7.890;2023-08-31T01:24:55;14.50;99.90
15296;DHT22;7749;49.964;7.890;2023-08-31T01:27:23;14.40;99.90
15296;DHT22;7749;49.964;7.890;2023-08-31T01:29:51;14.40;99.90
15296;DHT22;7749;49.964;7.890;2023-08-31T01:32:21;14.40;99.90
15296;DHT22;7749;49.964;7.890;2023-08-31T01:34:50;14.40;99.90
15296;DHT22;7749;49.964;7.890;2023-08-31T01:37:33;14.30;99.90
15296;DHT22;7749;49.964;7.890;2023-08-31T01:40:08;14.20;99.90
15296;DHT22;7749;49.964;7.890;2023-08-31T01:42:38;14.20;99.90
15296;DHT22;7749;49.964;7.890;2023-08-31T01:45:06;14.20;99.90
15296;DHT22;7749;49.964;7.890;2023-08-31T01:47:34;14.00;99.90
15296;DHT22;7749;49.964;7.890;2023-08-31T01:50:02;14.00;99.90
15296;DHT22;7749;49.964;7.890;2023-08-31T01:52:29;13.90;99.90
15296;DHT22;7749;49.964;7.890;2023-08-31T01:54:57;13.90;99.90
15296;DHT22;7749;49.964;7.890;2023-08-31T01:57:25;13.90;99.90
15296;DHT22;7749;49.964;7.890;2023-08-31T01:59:54;13.90;99.90
15296;DHT22;7749;49.964;7.890;2023-08-31T02:02:21;13.80;99.90
15296;DHT22;7749;49.964;7.890;2023-08-31T02:04:49;13.70;99.90
15296;DHT22;7749;49.964;7.890;2023-08-31T02:07:18;13.70;99.90
15296;DHT22;7749;49.964;7.890;2023-08-31T02:09:46;13.70;99.90
15296;DHT22;7749;49.964;7.890;2023-08-31T02:12:13;13.70;99.90
15296;DHT22;7749;49.964;7.890;2023-08-31T02:14:41;13.60;99.90
15296;DHT22;7749;49.964;7.890;2023-08-31T02:17:08;13.60;99.90
15296;DHT22;7749;49.964;7.890;2023-08-31T02:19:36;13.50;99.90
15296;DHT22;7749;49.964;7.890;2023-08-31T02:22:03;13.50;99.90
15296;DHT22;7749;49.964;7.890;2023-08-31T02:24:31;13.50;99.90
15296;DHT22;7749;49.964;7.890;2023-08-31T02:26:59;13.60;99.90
15296;DHT22;7749;49.964;7.890;2023-08-31T02:29:26;13.50;99.90
15296;DHT22;7749;49.964;7.890;2023-08-31T02:31:54;13.50;99.90
15296;DHT22;7749;49.964;7.890;2023-08-31T02:34:21;13.50;99.90
15296;DHT22;7749;49.964;7.890;2023-08-31T02:37:14;13.50;99.90
15296;DHT22;7749;49.964;7.890;2023-08-31T02:39:41;13.50;99.90
15296;DHT22;7749;49.964;7.890;2023-08-31T02:42:09;13.50;99.90
15296;DHT22;7749;49.964;7.890;2023-08-31T02:44:36;13.50;99.90
15296;DHT22;7749;49.964;7.890;2023-08-31T02:47:04;13.60;99.90
15296;DHT22;7749;49.964;7.890;2023-08-31T02:49:31;13.60;99.90
15296;DHT22;7749;49.964;7.890;2023-08-31T02:51:59;13.60;99.90
15296;DHT22;7749;49.964;7.890;2023-08-31T02:54:26;13.60;99.90
15296;DHT22;7749;49.964;7.890;2023-08-31T02:56:54;13.50;99.90
15296;DHT22;7749;49.964;7.890;2023-08-31T02:59:21;13.50;99.90
15296;DHT22;7749;49.964;7.890;2023-08-31T03:01:49;13.50;99.90
15296;DHT22;7749;49.964;7.890;2023-08-31T03:04:16;13.50;99.90
15296;DHT22;7749;49.964;7.890;2023-08-31T03:06:45;13.50;99.90
15296;DHT22;7749;49.964;7.890;2023-08-31T03:09:13;13.50;99.90
15296;DHT22;7749;49.964;7.890;2023-08-31T03:11:40;13.50;99.90
15296;DHT22;7749;49.964;7.890;2023-08-31T03:14:08;13.60;99.90
15296;DHT22;7749;49.964;7.890;2023-08-31T03:16:37;13.50;99.90
15296;DHT22;7749;49.964;7.890;2023-08-31T03:19:05;13.50;99.90
15296;DHT22;7749;49.964;7.890;2023-08-31T03:21:33;13.50;99.90
15296;DHT22;7749;49.964;7.890;2023-08-31T03:24:00;13.50;99.90
15296;DHT22;7749;49.964;7.890;2023-08-31T03:26:28;13.50;99.90
15296;DHT22;7749;49.964;7.890;2023-08-31T03:28:55;13.50;99.90
15296;DHT22;7749;49.964;7.890;2023-08-31T03:31:23;13.40;99.90
15296;DHT22;7749;49.964;7.890;2023-08-31T03:33:51;13.40;99.90
15296;DHT22;7749;49.964;7.890;2023-08-31T03:36:18;13.40;99.90
15296;DHT22;7749;49.964;7.890;2023-08-31T03:38:46;13.30;99.90
15296;DHT22;7749;49.964;7.890;2023-08-31T03:41:13;13.30;99.90
15296;DHT22;7749;49.964;7.890;2023-08-31T03:43:41;13.20;99.90
15296;DHT22;7749;49.964;7.890;2023-08-31T03:46:08;13.20;99.90
15296;DHT22;7749;49.964;7.890;2023-08-31T03:48:36;13.10;99.90
15296;DHT22;7749;49.964;7.890;2023-08-31T03:51:04;13.10;99.90
15296;DHT22;7749;49.964;7.890;2023-08-31T03:53:31;13.10;99.90
15296;DHT22;7749;49.964;7.890;2023-08-31T03:55:59;13.10;99.90
15296;DHT22;7749;49.964;7.890;2023-08-31T03:58:26;13.00;99.90
15296;DHT22;7749;49.964;7.890;2023-08-31T04:00:54;12.90;99.90
15296;DHT22;7749;49.964;7.890;2023-08-31T04:03:22;13.00;99.90
15296;DHT22;7749;49.964;7.890;2023-08-31T04:05:55;12.90;99.90
15296;DHT22;7749;49.964;7.890;2023-08-31T04:08:22;12.80;99.90
15296;DHT22;7749;49.964;7.890;2023-08-31T04:10:50;12.80;99.90
15296;DHT22;7749;49.964;7.890;2023-08-31T04:13:17;12.80;99.90
15296;DHT22;7749;49.964;7.890;2023-08-31T04:15:45;12.70;99.90
15296;DHT22;7749;49.964;7.890;2023-08-31T04:18:12;12.70;99.90
15296;DHT22;7749;49.964;7.890;2023-08-31T04:20:49;12.70;99.90
15296;DHT22;7749;49.964;7.890;2023-08-31T04:23:19;12.80;99.90
15296;DHT22;7749;49.964;7.890;2023-08-31T04:25:47;12.80;99.90
15296;DHT22;7749;49.964;7.890;2023-08-31T04:28:14;12.80;99.90
15296;DHT22;7749;49.964;7.890;2023-08-31T04:30:42;12.90;99.90
15296;DHT22;7749;49.964;7.890;2023-08-31T04:33:10;12.90;99.90
15296;DHT22;7749;49.964;7.890;2023-08-31T04:35:38;12.90;99.90
15296;DHT22;7749;49.964;7.890;2023-08-31T04:38:06;12.90;99.90
15296;DHT22;7749;49.964;7.890;2023-08-31T04:40:33;12.90;99.90
15296;DHT22;7749;49.964;7.890;2023-08-31T04:43:00;13.00;99.90
15296;DHT22;7749;49.964;7.890;2023-08-31T04:45:29;13.00;99.90
15296;DHT22;7749;49.964;7.890;2023-08-31T04:47:56;13.00;99.90
15296;DHT22;7749;49.964;7.890;2023-08-31T04:50:35;13.10;99.90
15296;DHT22;7749;49.964;7.890;2023-08-31T04:53:03;13.10;99.90
15296;DHT22;7749;49.964;7.890;2023-08-31T04:55:31;13.10;99.90
15296;DHT22;7749;49.964;7.890;2023-08-31T04:57:59;13.10;99.90
15296;DHT22;7749;49.964;7.890;2023-08-31T05:00:26;13.10;99.90
15296;DHT22;7749;49.964;7.890;2023-08-31T05:02:54;13.10;99.90
15296;DHT22;7749;49.964;7.890;2023-08-31T05:05:21;13.10;99.90
15296;DHT22;7749;49.964;7.890;2023-08-31T05:07:49;13.10;99.90
15296;DHT22;7749;49.964;7.890;2023-08-31T05:10:17;13.10;99.90
15296;DHT22;7749;49.964;7.890;2023-08-31T05:12:44;13.20;99.90
15296;DHT22;7749;49.964;7.890;2023-08-31T05:15:12;13.30;99.90
15296;DHT22;7749;49.964;7.890;2023-08-31T05:17:40;13.40;99.90
15296;DHT22;7749;49.964;7.890;2023-08-31T05:20:08;13.50;99.90
15296;DHT22;7749;49.964;7.890;2023-08-31T05:22:37;13.60;99.90
15296;DHT22;7749;49.964;7.890;2023-08-31T05:25:05;13.60;99.90
15296;DHT22;7749;49.964;7.890;2023-08-31T05:27:33;13.70;99.90
15296;DHT22;7749;49.964;7.890;2023-08-31T05:30:00;13.80;99.90
15296;DHT22;7749;49.964;7.890;2023-08-31T05:32:28;13.90;99.90
15296;DHT22;7749;49.964;7.890;2023-08-31T05:34:57;14.00;99.90
15296;DHT22;7749;49.964;7.890;2023-08-31T05:37:26;14.10;99.90
15296;DHT22;7749;49.964;7.890;2023-08-31T05:39:58;14.20;99.90
15296;DHT22;7749;49.964;7.890;2023-08-31T05:42:25;14.30;99.90
15296;DHT22;7749;49.964;7.890;2023-08-31T05:44:53;14.30;99.90
15296;DHT22;7749;49.964;7.890;2023-08-31T05:47:21;14.40;99.90
15296;DHT22;7749;49.964;7.890;2023-08-31T05:49:48;14.30;99.90
15296;DHT22;7749;49.964;7.890;2023-08-31T05:52:16;14.10;99.90
15296;DHT22;7749;49.964;7.890;2023-08-31T05:54:43;14.20;99.90
15296;DHT22;7749;49.964;7.890;2023-08-31T05:57:11;14.20;99.90
15296;DHT22;7749;49.964;7.890;2023-08-31T05:59:38;14.10;99.90
15296;DHT22;7749;49.964;7.890;2023-08-31T06:02:06;14.20;99.90
15296;DHT22;7749;49.964;7.890;2023-08-31T06:04:36;14.30;99.90
15296;DHT22;7749;49.964;7.890;2023-08-31T06:07:04;14.40;99.90
15296;DHT22;7749;49.964;7.890;2023-08-31T06:09:32;14.40;99.90
15296;DHT22;7749;49.964;7.890;2023-08-31T06:11:59;14.50;99.90
15296;DHT22;7749;49.964;7.890;2023-08-31T06:14:27;14.50;99.90
15296;DHT22;7749;49.964;7.890;2023-08-31T06:16:54;14.40;99.90
15296;DHT22;7749;49.964;7.890;2023-08-31T06:19:22;14.50;99.90
15296;DHT22;7749;49.964;7.890;2023-08-31T06:21:49;14.60;99.90
15296;DHT22;7749;49.964;7.890;2023-08-31T06:24:17;14.50;99.90
15296;DHT22;7749;49.964;7.890;2023-08-31T06:26:44;14.60;99.90
15296;DHT22;7749;49.964;7.890;2023-08-31T06:29:12;14.90;99.90
15296;DHT22;7749;49.964;7.890;2023-08-31T06:31:42;15.10;99.90
15296;DHT22;7749;49.964;7.890;2023-08-31T06:34:10;15.20;99.90
15296;DHT22;7749;49.964;7.890;2023-08-31T06:36:38;15.20;99.90
15296;DHT22;7749;49.964;7.890;2023-08-31T06:39:06;15.30;99.90
15296;DHT22;7749;49.964;7.890;2023-08-31T06:41:34;15.40;99.90
15296;DHT22;7749;49.964;7.890;2023-08-31T06:44:02;15.40;1.00
15296;DHT22;7749;49.964;7.890;2023-08-31T06:46:31;15.50;1.00
15296;DHT22;7749;49.964;7.890;2023-08-31T06:49:05;15.60;1.00
15296;DHT22;7749;49.964;7.890;2023-08-31T06:51:33;15.80;1.00
15296;DHT22;7749;49.964;7.890;2023-08-31T06:54:01;15.70;1.00
15296;DHT22;7749;49.964;7.890;2023-08-31T06:56:35;15.50;1.00
15296;DHT22;7749;49.964;7.890;2023-08-31T06:59:02;15.50;99.90
15296;DHT22;7749;49.964;7.890;2023-08-31T07:01:30;15.40;99.90
15296;DHT22;7749;49.964;7.890;2023-08-31T07:04:00;15.30;99.90
15296;DHT22;7749;49.964;7.890;2023-08-31T07:06:27;15.20;99.90
15296;DHT22;7749;49.964;7.890;2023-08-31T07:08:55;15.30;99.90
15296;DHT22;7749;49.964;7.890;2023-08-31T07:11:23;15.40;99.90
15296;DHT22;7749;49.964;7.890;2023-08-31T07:13:50;15.70;99.90
15296;DHT22;7749;49.964;7.890;2023-08-31T07:16:18;15.90;99.90
15296;DHT22;7749;49.964;7.890;2023-08-31T07:18:45;16.00;99.90
15296;DHT22;7749;49.964;7.890;2023-08-31T07:21:13;16.10;99.90
15296;DHT22;7749;49.964;7.890;2023-08-31T07:23:41;16.20;99.90
15296;DHT22;7749;49.964;7.890;2023-08-31T07:26:08;16.30;99.90
15296;DHT22;7749;49.964;7.890;2023-08-31T07:28:36;16.40;99.90
15296;DHT22;7749;49.964;7.890;2023-08-31T07:31:06;16.50;99.90
15296;DHT22;7749;49.964;7.890;2023-08-31T07:33:34;16.50;99.90
15296;DHT22;7749;49.964;7.890;2023-08-31T07:36:04;16.50;99.90
15296;DHT22;7749;49.964;7.890;2023-08-31T07:38:33;16.60;99.90
15296;DHT22;7749;49.964;7.890;2023-08-31T07:41:00;16.70;99.90
15296;DHT22;7749;49.964;7.890;2023-08-31T07:43:28;16.70;99.90
15296;DHT22;7749;49.964;7.890;2023-08-31T07:45:57;16.80;99.90
15296;DHT22;7749;49.964;7.890;2023-08-31T07:48:24;16.70;99.90
15296;DHT22;7749;49.964;7.890;2023-08-31T07:50:52;16.80;99.90
15296;DHT22;7749;49.964;7.890;2023-08-31T07:53:20;17.00;99.90
15296;DHT22;7749;49.964;7.890;2023-08-31T07:55:54;16.90;99.90
15296;DHT22;7749;49.964;7.890;2023-08-31T07:58:22;17.00;99.90
15296;DHT22;7749;49.964;7.890;2023-08-31T08:00:54;17.10;99.90
15296;DHT22;7749;49.964;7.890;2023-08-31T08:03:23;16.90;99.90
15296;DHT22;7749;49.964;7.890;2023-08-31T08:05:51;16.70;99.90
15296;DHT22;7749;49.964;7.890;2023-08-31T08:08:21;16.40;99.90
15296;DHT22;7749;49.964;7.890;2023-08-31T08:10:55;16.50;99.90
15296;DHT22;7749;49.964;7.890;2023-08-31T08:13:23;16.50;99.90
15296;DHT22;7749;49.964;7.890;2023-08-31T08:15:51;16.60;99.90
15296;DHT22;7749;49.964;7.890;2023-08-31T08:18:18;17.00;99.90
15296;DHT22;7749;49.964;7.890;2023-08-31T08:20:52;17.40;99.90
15296;DHT22;7749;49.964;7.890;2023-08-31T08:23:20;17.90;99.90
15296;DHT22;7749;49.964;7.890;2023-08-31T08:25:49;18.10;99.90
15296;DHT22;7749;49.964;7.890;2023-08-31T08:28:16;18.10;99.90
15296;DHT22;7749;49.964;7.890;2023-08-31T08:30:44;17.90;99.90
15296;DHT22;7749;49.964;7.890;2023-08-31T08:33:13;18.00;99.90
15296;DHT22;7749;49.964;7.890;2023-08-31T08:35:41;18.20;99.90
15296;DHT22;7749;49.964;7.890;2023-08-31T08:38:08;18.00;99.90
15296;DHT22;7749;49.964;7.890;2023-08-31T08:40:36;18.10;99.90
15296;DHT22;7749;49.964;7.890;2023-08-31T08:43:07;17.80;99.90
15296;DHT22;7749;49.964;7.890;2023-08-31T08:45:37;17.90;99.90
15296;DHT22;7749;49.964;7.890;2023-08-31T08:48:06;18.10;99.90
15296;DHT22;7749;49.964;7.890;2023-08-31T08:50:36;18.40;99.90
15296;DHT22;7749;49.964;7.890;2023-08-31T08:53:05;18.30;99.90
15296;DHT22;7749;49.964;7.890;2023-08-31T08:55:33;18.30;99.90
15296;DHT22;7749;49.964;7.890;2023-08-31T08:58:02;18.30;99.90
15296;DHT22;7749;49.964;7.890;2023-08-31T09:00:31;18.40;99.90
15296;DHT22;7749;49.964;7.890;2023-08-31T09:03:00;18.70;99.90
15296;DHT22;7749;49.964;7.890;2023-08-31T09:05:32;18.90;99.90
15296;DHT22;7749;49.964;7.890;2023-08-31T09:10:42;19.20;99.90
15296;DHT22;7749;49.964;7.890;2023-08-31T09:13:14;19.30;99.90
15296;DHT22;7749;49.964;7.890;2023-08-31T09:15:47;19.10;99.90
15296;DHT22;7749;49.964;7.890;2023-08-31T09:18:26;19.00;99.90
15296;DHT22;7749;49.964;7.890;2023-08-31T09:20:54;18.70;99.90
15296;DHT22;7749;49.964;7.890;2023-08-31T09:23:24;18.70;99.90
15296;DHT22;7749;49.964;7.890;2023-08-31T09:25:54;18.70;99.90
15296;DHT22;7749;49.964;7.890;2023-08-31T09:28:24;18.70;99.90
15296;DHT22;7749;49.964;7.890;2023-08-31T09:31:05;18.60;99.90
15296;DHT22;7749;49.964;7.890;2023-08-31T09:33:35;18.60;99.90
15296;DHT22;7749;49.964;7.890;2023-08-31T09:36:07;18.70;99.90
15296;DHT22;7749;49.964;7.890;2023-08-31T09:38:42;18.90;99.90
15296;DHT22;7749;49.964;7.890;2023-08-31T09:41:11;19.10;99.90
15296;DHT22;7749;49.964;7.890;2023-08-31T09:43:38;19.30;99.90
15296;DHT22;7749;49.964;7.890;2023-08-31T09:46:06;19.40;99.90
15296;DHT22;7749;49.964;7.890;2023-08-31T09:48:36;19.30;99.90
15296;DHT22;7749;49.964;7.890;2023-08-31T09:51:06;19.20;99.90
15296;DHT22;7749;49.964;7.890;2023-08-31T09:53:37;19.10;99.90
15296;DHT22;7749;49.964;7.890;2023-08-31T09:56:05;19.00;99.90
15296;DHT22;7749;49.964;7.890;2023-08-31T09:58:34;19.00;99.90
15296;DHT22;7749;49.964;7.890;2023-08-31T10:01:01;19.10;99.90
15296;DHT22;7749;49.964;7.890;2023-08-31T10:03:40;19.00;99.90
15296;DHT22;7749;49.964;7.890;2023-08-31T10:06:08;19.40;99.90
15296;DHT22;7749;49.964;7.890;2023-08-31T10:08:39;19.90;99.90
15296;DHT22;7749;49.964;7.890;2023-08-31T10:11:07;19.90;99.90
15296;DHT22;7749;49.964;7.890;2023-08-31T10:13:38;20.40;99.90
15296;DHT22;7749;49.964;7.890;2023-08-31T10:16:08;20.80;99.90
15296;DHT22;7749;49.964;7.890;2023-08-31T10:18:36;20.80;99.90
15296;DHT22;7749;49.964;7.890;2023-08-31T10:21:04;21.00;99.90
15296;DHT22;7749;49.964;7.890;2023-08-31T10:23:32;21.00;99.90
15296;DHT22;7749;49.964;7.890;2023-08-31T10:26:00;20.80;99.90
15296;DHT22;7749;49.964;7.890;2023-08-31T10:28:28;21.10;99.90
15296;DHT22;7749;49.964;7.890;2023-08-31T10:31:09;21.40;99.90
15296;DHT22;7749;49.964;7.890;2023-08-31T10:33:45;21.30;99.90
15296;DHT22;7749;49.964;7.890;2023-08-31T10:36:17;21.60;99.90
15296;DHT22;7749;49.964;7.890;2023-08-31T10:38:46;21.60;99.90
15296;DHT22;7749;49.964;7.890;2023-08-31T10:43:46;21.00;99.90
15296;DHT22;7749;49.964;7.890;2023-08-31T10:51:30;21.40;99.90
15296;DHT22;7749;49.964;7.890;2023-08-31T10:56:32;20.60;99.90
15296;DHT22;7749;49.964;7.890;2023-08-31T10:59:01;20.80;99.90
15296;DHT22;7749;49.964;7.890;2023-08-31T11:01:59;21.00;98.90
15296;DHT22;7749;49.964;7.890;2023-08-31T11:04:29;21.00;99.70
15296;DHT22;7749;49.964;7.890;2023-08-31T11:07:18;21.20;98.60
15296;DHT22;7749;49.964;7.890;2023-08-31T11:09:46;21.30;98.90
15296;DHT22;7749;49.964;7.890;2023-08-31T11:12:14;21.60;95.70
15296;DHT22;7749;49.964;7.890;2023-08-31T11:14:41;23.20;91.10
15296;DHT22;7749;49.964;7.890;2023-08-31T11:17:10;23.90;80.80
15296;DHT22;7749;49.964;7.890;2023-08-31T11:19:38;24.00;73.80
15296;DHT22;7749;49.964;7.890;2023-08-31T11:22:06;23.40;75.60
15296;DHT22;7749;49.964;7.890;2023-08-31T11:24:37;23.10;75.60
15296;DHT22;7749;49.964;7.890;2023-08-31T11:27:07;23.90;77.30
15296;DHT22;7749;49.964;7.890;2023-08-31T11:29:43;25.70;69.10
15296;DHT22;7749;49.964;7.890;2023-08-31T11:32:10;25.40;62.30
15296;DHT22;7749;49.964;7.890;2023-08-31T11:34:42;26.50;59.40
15296;DHT22;7749;49.964;7.890;2023-08-31T11:37:12;27.70;54.40
15296;DHT22;7749;49.964;7.890;2023-08-31T11:39:52;28.10;51.90
15296;DHT22;7749;49.964;7.890;2023-08-31T11:42:21;28.30;49.30
15296;DHT22;7749;49.964;7.890;2023-08-31T11:44:50;27.40;48.50
15296;DHT22;7749;49.964;7.890;2023-08-31T11:47:19;26.60;50.20
15296;DHT22;7749;49.964;7.890;2023-08-31T11:49:47;25.80;52.80
15296;DHT22;7749;49.964;7.890;2023-08-31T11:52:16;25.40;54.20
15296;DHT22;7749;49.964;7.890;2023-08-31T11:54:43;25.60;53.90
15296;DHT22;7749;49.964;7.890;2023-08-31T11:57:13;26.00;51.50
15296;DHT22;7749;49.964;7.890;2023-08-31T11:59:41;24.30;51.30
15296;DHT22;7749;49.964;7.890;2023-08-31T12:02:09;24.30;51.40
15296;DHT22;7749;49.964;7.890;2023-08-31T12:04:43;24.40;53.00
15296;DHT22;7749;49.964;7.890;2023-08-31T12:07:16;24.40;50.80
15296;DHT22;7749;49.964;7.890;2023-08-31T12:09:45;24.30;52.10
15296;DHT22;7749;49.964;7.890;2023-08-31T12:12:14;24.70;52.90
15296;DHT22;7749;49.964;7.890;2023-08-31T12:14:43;24.50;53.00
15296;DHT22;7749;49.964;7.890;2023-08-31T12:17:18;23.70;54.30
15296;DHT22;7749;49.964;7.890;2023-08-31T12:19:46;23.80;56.20
15296;DHT22;7749;49.964;7.890;2023-08-31T12:22:14;24.00;54.60
15296;DHT22;7749;49.964;7.890;2023-08-31T12:24:41;24.50;56.30
15296;DHT22;7749;49.964;7.890;2023-08-31T12:27:10;25.90;52.00
15296;DHT22;7749;49.964;7.890;2023-08-31T12:29:38;27.90;49.50
15296;DHT22;7749;49.964;7.890;2023-08-31T12:32:08;28.90;47.40
15296;DHT22;7749;49.964;7.890;2023-08-31T12:34:35;30.00;46.10
15296;DHT22;7749;49.964;7.890;2023-08-31T12:37:03;29.50;45.90
15296;DHT22;7749;49.964;7.890;2023-08-31T12:39:32;29.20;46.20
15296;DHT22;7749;49.964;7.890;2023-08-31T12:41:59;29.50;47.60
15296;DHT22;7749;49.964;7.890;2023-08-31T12:44:43;30.30;45.40
15296;DHT22;7749;49.964;7.890;2023-08-31T12:47:11;30.90;43.70
15296;DHT22;7749;49.964;7.890;2023-08-31T12:49:38;30.50;42.50
15296;DHT22;7749;49.964;7.890;2023-08-31T12:52:06;29.80;44.00
15296;DHT22;7749;49.964;7.890;2023-08-31T12:54:33;28.90;45.00
15296;DHT22;7749;49.964;7.890;2023-08-31T12:57:00;28.60;43.40
15296;DHT22;7749;49.964;7.890;2023-08-31T12:59:28;28.90;43.90
15296;DHT22;7749;49.964;7.890;2023-08-31T13:01:55;29.60;43.50
15296;DHT22;7749;49.964;7.890;2023-08-31T13:04:24;31.10;41.60
15296;DHT22;7749;49.964;7.890;2023-08-31T13:06:52;32.00;40.70
15296;DHT22;7749;49.964;7.890;2023-08-31T13:09:19;29.80;40.20
15296;DHT22;7749;49.964;7.890;2023-08-31T13:11:47;28.60;42.90
15296;DHT22;7749;49.964;7.890;2023-08-31T13:14:14;27.50;45.80
15296;DHT22;7749;49.964;7.890;2023-08-31T13:16:42;27.90;45.70
15296;DHT22;7749;49.964;7.890;2023-08-31T13:19:09;28.00;46.20
15296;DHT22;7749;49.964;7.890;2023-08-31T13:21:37;28.00;47.00
15296;DHT22;7749;49.964;7.890;2023-08-31T13:24:04;30.60;43.80
15296;DHT22;7749;49.964;7.890;2023-08-31T13:26:32;31.00;39.40
15296;DHT22;7749;49.964;7.890;2023-08-31T13:28:59;29.60;41.10
15296;DHT22;7749;49.964;7.890;2023-08-31T13:31:27;29.20;42.30
15296;DHT22;7749;49.964;7.890;2023-08-31T13:33:56;28.80;42.30
15296;DHT22;7749;49.964;7.890;2023-08-31T13:36:23;29.90;41.70
15296;DHT22;7749;49.964;7.890;2023-08-31T13:38:51;29.30;41.20
15296;DHT22;7749;49.964;7.890;2023-08-31T13:41:18;28.20;44.30
15296;DHT22;7749;49.964;7.890;2023-08-31T13:43:45;29.30;45.10
15296;DHT22;7749;49.964;7.890;2023-08-31T13:46:13;30.50;42.20
15296;DHT22;7749;49.964;7.890;2023-08-31T13:48:41;30.60;42.00
15296;DHT22;7749;49.964;7.890;2023-08-31T13:51:08;28.30;41.30
15296;DHT22;7749;49.964;7.890;2023-08-31T13:53:36;28.10;41.00
15296;DHT22;7749;49.964;7.890;2023-08-31T13:56:03;27.60;44.30
15296;DHT22;7749;49.964;7.890;2023-08-31T13:58:31;27.70;43.70
15296;DHT22;7749;49.964;7.890;2023-08-31T14:01:01;27.50;43.60
15296;DHT22;7749;49.964;7.890;2023-08-31T14:03:44;28.60;42.90
15296;DHT22;7749;49.964;7.890;2023-08-31T14:06:12;29.60;41.60
15296;DHT22;7749;49.964;7.890;2023-08-31T14:08:42;29.90;42.00
15296;DHT22;7749;49.964;7.890;2023-08-31T14:11:09;31.30;39.70
15296;DHT22;7749;49.964;7.890;2023-08-31T14:13:37;30.50;40.90
15296;DHT22;7749;49.964;7.890;2023-08-31T14:16:04;29.20;41.50
15296;DHT22;7749;49.964;7.890;2023-08-31T14:18:32;29.20;42.50
15296;DHT22;7749;49.964;7.890;2023-08-31T14:20:59;28.60;42.60
15296;DHT22;7749;49.964;7.890;2023-08-31T14:23:29;27.00;44.40
15296;DHT22;7749;49.964;7.890;2023-08-31T14:26:03;26.20;46.90
15296;DHT22;7749;49.964;7.890;2023-08-31T14:28:30;25.10;48.00
15296;DHT22;7749;49.964;7.890;2023-08-31T14:31:04;24.30;51.00
15296;DHT22;7749;49.964;7.890;2023-08-31T14:33:32;24.20;53.60
15296;DHT22;7749;49.964;7.890;2023-08-31T14:35:59;24.60;52.80
15296;DHT22;7749;49.964;7.890;2023-08-31T14:38:36;24.50;53.20
15296;DHT22;7749;49.964;7.890;2023-08-31T14:41:03;23.80;55.70
15296;DHT22;7749;49.964;7.890;2023-08-31T14:43:33;23.10;59.20
15296;DHT22;7749;49.964;7.890;2023-08-31T14:46:01;23.30;60.10
15296;DHT22;7749;49.964;7.890;2023-08-31T14:48:29;23.30;61.20
15296;DHT22;7749;49.964;7.890;2023-08-31T14:50:56;23.10;61.10
15296;DHT22;7749;49.964;7.890;2023-08-31T14:53:26;22.50;64.20
15296;DHT22;7749;49.964;7.890;2023-08-31T14:55:53;22.20;67.50
15296;DHT22;7749;49.964;7.890;2023-08-31T14:58:21;22.20;70.80
15296;DHT22;7749;49.964;7.890;2023-08-31T15:00:48;22.40;70.90
15296;DHT22;7749;49.964;7.890;2023-08-31T15:03:16;22.90;71.10
15296;DHT22;7749;49.964;7.890;2023-08-31T15:05:47;23.60;69.10
15296;DHT22;7749;49.964;7.890;2023-08-31T15:08:15;23.80;66.10
15296;DHT22;7749;49.964;7.890;2023-08-31T15:10:43;23.80;67.10
15296;DHT22;7749;49.964;7.890;2023-08-31T15:13:10;23.30;68.00
15296;DHT22;7749;49.964;7.890;2023-08-31T15:15:38;22.90;70.00
15296;DHT22;7749;49.964;7.890;2023-08-31T15:18:06;22.80;71.60
15296;DHT22;7749;49.964;7.890;2023-08-31T15:20:35;22.70;72.80
15296;DHT22;7749;49.964;7.890;2023-08-31T15:23:05;22.80;73.20
15296;DHT22;7749;49.964;7.890;2023-08-31T15:25:33;22.50;73.00
15296;DHT22;7749;49.964;7.890;2023-08-31T15:28:00;22.40;74.10
15296;DHT22;7749;49.964;7.890;2023-08-31T15:30:30;22.30;76.70
15296;DHT22;7749;49.964;7.890;2023-08-31T15:33:05;22.50;77.50
15296;DHT22;7749;49.964;7.890;2023-08-31T15:35:33;22.80;76.00
15296;DHT22;7749;49.964;7.890;2023-08-31T15:38:01;23.20;74.70
15296;DHT22;7749;49.964;7.890;2023-08-31T15:40:30;23.40;71.90
15296;DHT22;7749;49.964;7.890;2023-08-31T15:42:57;24.10;69.60
15296;DHT22;7749;49.964;7.890;2023-08-31T15:45:25;24.20;67.70
15296;DHT22;7749;49.964;7.890;2023-08-31T15:47:53;24.10;68.00
15296;DHT22;7749;49.964;7.890;2023-08-31T15:50:21;24.50;66.50
15296;DHT22;7749;49.964;7.890;2023-08-31T15:52:48;24.40;65.30
15296;DHT22;7749;49.964;7.890;2023-08-31T15:55:17;24.30;65.40
15296;DHT22;7749;49.964;7.890;2023-08-31T15:57:44;23.70;66.30
15296;DHT22;7749;49.964;7.890;2023-08-31T16:00:12;23.20;67.30
15296;DHT22;7749;49.964;7.890;2023-08-31T16:02:40;22.10;71.00
15296;DHT22;7749;49.964;7.890;2023-08-31T16:05:08;21.90;77.20
15296;DHT22;7749;49.964;7.890;2023-08-31T16:07:35;22.00;78.30
15296;DHT22;7749;49.964;7.890;2023-08-31T16:10:05;22.10;79.20
15296;DHT22;7749;49.964;7.890;2023-08-31T16:12:34;22.10;78.70
15296;DHT22;7749;49.964;7.890;2023-08-31T16:15:01;22.10;77.80
15296;DHT22;7749;49.964;7.890;2023-08-31T16:17:29;22.00;80.60
15296;DHT22;7749;49.964;7.890;2023-08-31T16:19:57;21.90;82.10